Time;durP1;ratioP1;P1;durP2;ratioP2;P2;SDS_P1;SDS_P2;PMS_P1;PMS_P2;Temp;Humidity;BMP_temperature;BMP_pressure;BME280_temperature;BME280_humidity;BME280_pressure;Samples;Min_cycle;Max_cycle;Signal;HPM_P1;HPM_P2
2023/06/29 00:00:15;;;;;;;32.13;28.85;;;21.20;99.90;;;;;;6272329;22;20084;-80
2023/06/29 00:02:41;;;;;;;32.75;29.27;;;21.10;99.90;;;;;;6245194;22;20039;-80
2023/06/29 00:05:08;;;;;;;35.78;31.98;;;21.10;99.90;;;;;;6245069;22;20023;-80
2023/06/29 00:07:34;;;;;;;36.13;30.83;;;21.00;99.90;;;;;;6271837;22;19996;-80
2023/06/29 00:10:00;;;;;;;35.38;31.52;;;21.00;99.90;;;;;;6244584;22;20015;-81
2023/06/29 00:12:26;;;;;;;33.78;30.17;;;20.90;99.90;;;;;;6272171;22;19995;-80
2023/06/29 00:14:52;;;;;;;33.85;30.38;;;20.90;99.90;;;;;;6245203;22;20317;-80
2023/06/29 00:17:19;;;;;;;33.90;30.33;;;20.80;99.90;;;;;;6244828;22;20000;-80
2023/06/29 00:19:47;;;;;;;36.25;31.15;;;20.80;99.90;;;;;;6245098;22;20026;-80
2023/06/29 00:22:13;;;;;;;35.83;32.03;;;20.70;99.90;;;;;;6270873;22;20004;-80
2023/06/29 00:24:42;;;;;;;37.45;31.73;;;20.70;99.90;;;;;;6244981;22;20031;-80
2023/06/29 00:27:12;;;;;;;38.20;34.22;;;20.70;99.90;;;;;;6244587;22;20039;-80
2023/06/29 00:29:41;;;;;;;36.83;32.75;;;20.60;99.90;;;;;;6271958;22;20018;-80
2023/06/29 00:32:07;;;;;;;35.78;32.10;;;20.60;99.90;;;;;;6244728;22;20004;-80
2023/06/29 00:34:33;;;;;;;37.42;33.65;;;20.60;99.90;;;;;;6272367;22;19999;-81
2023/06/29 00:36:59;;;;;;;36.47;32.88;;;20.60;99.90;;;;;;6271715;22;20457;-80
2023/06/29 00:39:24;;;;;;;39.70;35.35;;;20.50;99.90;;;;;;6271670;22;20071;-80
2023/06/29 00:41:54;;;;;;;36.92;32.88;;;20.50;99.90;;;;;;6244527;22;20055;-81
2023/06/29 00:44:21;;;;;;;37.55;33.05;;;20.50;99.90;;;;;;6245039;22;20145;-80
2023/06/29 00:46:47;;;;;;;37.50;33.50;;;20.50;99.90;;;;;;6245315;22;20003;-80
2023/06/29 00:49:14;;;;;;;38.08;32.85;;;20.50;99.90;;;;;;6245829;22;20418;-80
2023/06/29 00:51:40;;;;;;;41.13;35.08;;;20.50;99.90;;;;;;6246695;22;20079;-80
2023/06/29 00:54:06;;;;;;;38.25;34.00;;;20.50;99.90;;;;;;6271924;22;19991;-80
2023/06/29 00:56:34;;;;;;;35.65;32.17;;;20.50;99.90;;;;;;6272483;22;20007;-81
2023/06/29 00:59:00;;;;;;;38.45;34.00;;;20.50;99.90;;;;;;6245078;22;20565;-80
2023/06/29 01:01:27;;;;;;;39.20;35.05;;;20.50;99.90;;;;;;6247671;22;20125;-80
2023/06/29 01:03:57;;;;;;;38.70;34.55;;;20.60;99.90;;;;;;6246626;22;20076;-80
2023/06/29 01:06:29;;;;;;;38.60;34.17;;;20.60;99.90;;;;;;6244292;22;20004;-80
2023/06/29 01:09:05;;;;;;;37.30;33.22;;;20.50;99.90;;;;;;6244571;22;20004;-80
2023/06/29 01:11:34;;;;;;;38.67;34.67;;;20.50;99.90;;;;;;6245090;22;20000;-79
2023/06/29 01:14:03;;;;;;;39.22;35.08;;;20.50;99.90;;;;;;6273331;22;20323;-80
2023/06/29 01:16:33;;;;;;;40.47;33.97;;;20.50;99.90;;;;;;6245756;22;20003;-81
2023/06/29 01:19:04;;;;;;;38.20;34.10;;;20.50;99.90;;;;;;6245133;22;20003;-81
2023/06/29 01:21:35;;;;;;;39.05;35.03;;;20.50;99.90;;;;;;6272095;22;19996;-80
2023/06/29 01:24:03;;;;;;;40.45;35.38;;;20.50;99.90;;;;;;6271311;22;20000;-80
2023/06/29 01:26:29;;;;;;;38.38;34.42;;;20.50;99.90;;;;;;6271277;22;20072;-80
2023/06/29 01:28:56;;;;;;;41.33;36.90;;;20.50;99.90;;;;;;6244235;22;20078;-80
2023/06/29 01:31:26;;;;;;;40.80;36.28;;;20.50;99.90;;;;;;6246530;22;20011;-80
2023/06/29 01:33:53;;;;;;;39.03;34.42;;;20.60;99.90;;;;;;6246328;22;20098;-80
2023/06/29 01:36:24;;;;;;;41.28;36.80;;;20.60;99.90;;;;;;6245355;22;20031;-80
2023/06/29 01:39:23;;;;;;;42.70;37.40;;;20.60;99.90;;;;;;6272048;22;20007;-80
2023/06/29 01:41:52;;;;;;;44.05;39.22;;;20.60;99.90;;;;;;6271835;22;20034;-80
2023/06/29 01:44:19;;;;;;;48.55;40.38;;;20.70;99.90;;;;;;6271681;22;20014;-81
2023/06/29 01:46:47;;;;;;;45.58;40.78;;;20.70;99.90;;;;;;6271912;22;19995;-80
2023/06/29 01:49:13;;;;;;;44.53;39.40;;;20.70;99.90;;;;;;6243665;22;20007;-80
2023/06/29 01:51:38;;;;;;;40.33;36.08;;;20.80;99.90;;;;;;6271583;22;20053;-79
2023/06/29 01:54:04;;;;;;;42.70;38.38;;;20.80;99.90;;;;;;6244133;22;20008;-80
2023/06/29 01:56:30;;;;;;;42.53;38.20;;;20.80;99.90;;;;;;6244719;22;20094;-80
2023/06/29 01:58:56;;;;;;;43.42;38.72;;;20.80;99.90;;;;;;6244153;22;20054;-80
2023/06/29 02:01:21;;;;;;;45.13;39.75;;;20.90;99.90;;;;;;6244317;22;20325;-80
2023/06/29 02:03:48;;;;;;;44.03;39.38;;;20.90;99.90;;;;;;6244394;22;20007;-80
2023/06/29 02:06:14;;;;;;;44.50;39.58;;;20.90;99.90;;;;;;6271357;22;20371;-81
2023/06/29 02:08:39;;;;;;;44.63;39.90;;;20.90;99.90;;;;;;6244395;22;20051;-80
2023/06/29 02:11:05;;;;;;;45.65;40.72;;;20.90;99.90;;;;;;6243714;22;20004;-80
2023/06/29 02:13:30;;;;;;;48.67;43.17;;;20.90;99.90;;;;;;6244338;22;20000;-80
2023/06/29 02:15:56;;;;;;;48.65;43.83;;;21.00;99.90;;;;;;6271121;22;20057;-80
2023/06/29 02:18:21;;;;;;;46.88;41.78;;;21.00;99.90;;;;;;6271061;22;19992;-80
2023/06/29 02:20:47;;;;;;;47.42;42.30;;;21.10;99.90;;;;;;6244501;22;20071;-80
2023/06/29 02:23:12;;;;;;;46.88;42.03;;;21.00;99.90;;;;;;6243967;22;20077;-80
2023/06/29 02:25:38;;;;;;;47.63;42.50;;;21.00;99.90;;;;;;6244194;22;20012;-80
2023/06/29 02:28:04;;;;;;;46.88;42.13;;;21.00;99.90;;;;;;6271165;22;19999;-80
2023/06/29 02:30:29;;;;;;;48.42;40.25;;;21.00;99.90;;;;;;6244043;22;20023;-80
2023/06/29 02:32:55;;;;;;;45.80;41.00;;;21.00;99.90;;;;;;6270617;22;20438;-81
2023/06/29 02:35:20;;;;;;;45.13;40.22;;;21.00;99.90;;;;;;6244460;22;20026;-80
2023/06/29 02:37:46;;;;;;;49.75;43.65;;;21.00;99.90;;;;;;6244426;22;20000;-81
2023/06/29 02:40:12;;;;;;;47.97;42.58;;;21.00;99.90;;;;;;6244054;22;20309;-80
2023/06/29 02:42:38;;;;;;;47.05;41.97;;;21.00;99.90;;;;;;6271353;22;20474;-80
2023/06/29 02:45:04;;;;;;;50.70;42.42;;;21.00;99.90;;;;;;6271029;22;20027;-79
2023/06/29 02:47:30;;;;;;;45.83;40.97;;;21.00;99.90;;;;;;6270826;22;20433;-80
2023/06/29 02:49:56;;;;;;;46.28;41.40;;;21.10;99.90;;;;;;6270863;22;20008;-80
2023/06/29 02:52:21;;;;;;;47.35;42.17;;;21.10;99.90;;;;;;6244106;22;20389;-80
2023/06/29 02:54:47;;;;;;;47.28;42.30;;;21.10;99.90;;;;;;6271295;22;20008;-80
2023/06/29 02:57:13;;;;;;;51.97;42.92;;;21.00;99.90;;;;;;6243779;22;20834;-80
2023/06/29 02:59:38;;;;;;;44.90;40.30;;;21.10;99.90;;;;;;6243787;22;20453;-80
2023/06/29 03:02:05;;;;;;;47.20;42.28;;;21.10;99.90;;;;;;6270689;22;20003;-80
2023/06/29 03:04:30;;;;;;;45.72;41.08;;;21.10;99.90;;;;;;6243922;22;20440;-80
2023/06/29 03:06:56;;;;;;;47.67;42.65;;;21.10;99.90;;;;;;6243893;22;20046;-80
2023/06/29 03:09:21;;;;;;;48.22;42.53;;;21.10;99.90;;;;;;6271093;22;20000;-80
2023/06/29 03:11:47;;;;;;;44.40;39.45;;;21.10;99.90;;;;;;6271553;22;20011;-81
2023/06/29 03:14:12;;;;;;;46.60;41.58;;;21.10;99.90;;;;;;6243597;22;20061;-80
2023/06/29 03:16:38;;;;;;;46.13;41.13;;;21.10;99.90;;;;;;6244558;22;20000;-80
2023/06/29 03:19:04;;;;;;;46.30;41.53;;;21.10;99.90;;;;;;6246279;22;20019;-80
2023/06/29 03:21:30;;;;;;;47.25;42.13;;;21.10;99.90;;;;;;6273137;22;20371;-80
2023/06/29 03:23:55;;;;;;;44.92;40.40;;;21.10;99.90;;;;;;6245601;22;20006;-80
2023/06/29 03:26:21;;;;;;;46.78;40.38;;;21.10;99.90;;;;;;6273633;22;20057;-80
2023/06/29 03:28:46;;;;;;;44.55;39.92;;;21.10;99.90;;;;;;6274404;22;20007;-81
2023/06/29 03:31:12;;;;;;;46.10;41.22;;;21.10;99.90;;;;;;6247009;22;20019;-80
2023/06/29 03:33:38;;;;;;;45.50;40.60;;;21.10;99.90;;;;;;6246622;22;20004;-80
2023/06/29 03:36:05;;;;;;;45.90;40.75;;;21.10;99.90;;;;;;6272796;22;19996;-80
2023/06/29 03:38:30;;;;;;;45.70;39.92;;;21.10;99.90;;;;;;6245781;22;20027;-81
2023/06/29 03:40:56;;;;;;;46.95;42.25;;;21.10;99.90;;;;;;6272828;22;20003;-81
2023/06/29 03:43:21;;;;;;;45.38;40.38;;;21.00;99.90;;;;;;6245676;22;20000;-81
2023/06/29 03:45:47;;;;;;;47.63;42.13;;;21.10;99.90;;;;;;6272802;22;20007;-80
2023/06/29 03:48:13;;;;;;;45.92;40.92;;;21.10;99.90;;;;;;6272668;22;20007;-81
2023/06/29 03:50:38;;;;;;;47.67;40.60;;;21.10;99.90;;;;;;6245467;22;20000;-80
2023/06/29 03:53:04;;;;;;;43.53;39.05;;;21.10;99.90;;;;;;6272452;22;20011;-80
2023/06/29 03:55:32;;;;;;;48.22;42.10;;;21.10;99.90;;;;;;6273083;22;20029;-80
2023/06/29 03:57:58;;;;;;;46.15;41.00;;;21.10;99.90;;;;;;6272575;22;20019;-80
2023/06/29 04:00:23;;;;;;;45.40;40.75;;;21.10;99.90;;;;;;6239925;23;20032;-80
2023/06/29 04:02:49;;;;;;;43.92;39.22;;;21.10;99.90;;;;;;6240367;23;20008;-80
2023/06/29 04:05:15;;;;;;;41.97;37.40;;;21.10;99.90;;;;;;6240211;23;20083;-80
2023/06/29 04:07:40;;;;;;;42.55;37.80;;;21.10;99.90;;;;;;6240538;23;20367;-83
2023/06/29 04:10:06;;;;;;;41.15;36.80;;;21.10;99.90;;;;;;6241806;23;20319;-83
2023/06/29 04:12:32;;;;;;;42.47;37.97;;;21.10;99.90;;;;;;6242317;22;20010;-83
2023/06/29 04:14:57;;;;;;;42.20;37.80;;;21.10;99.90;;;;;;6239432;23;20015;-83
2023/06/29 04:17:23;;;;;;;42.53;37.75;;;21.10;99.90;;;;;;6240354;23;20057;-83
2023/06/29 04:19:49;;;;;;;43.70;39.00;;;21.10;99.90;;;;;;6242160;23;20425;-83
2023/06/29 04:22:14;;;;;;;43.65;38.97;;;21.10;99.90;;;;;;6241463;23;20000;-80
2023/06/29 04:24:40;;;;;;;43.42;37.97;;;21.10;99.90;;;;;;6242159;23;20008;-80
2023/06/29 04:27:06;;;;;;;41.42;37.08;;;21.10;99.90;;;;;;6239523;23;20011;-81
2023/06/29 04:29:32;;;;;;;41.72;37.22;;;21.20;99.90;;;;;;6240096;23;20080;-81
2023/06/29 04:31:58;;;;;;;42.42;36.75;;;21.20;99.90;;;;;;6240015;23;20363;-81
2023/06/29 04:34:23;;;;;;;44.70;38.95;;;21.20;99.90;;;;;;6239908;23;20015;-80
2023/06/29 04:36:49;;;;;;;43.13;38.60;;;21.20;99.90;;;;;;6241785;23;20322;-80
2023/06/29 04:39:15;;;;;;;41.17;36.92;;;21.30;99.90;;;;;;6239863;23;20098;-79
2023/06/29 04:41:41;;;;;;;43.17;37.05;;;21.30;99.90;;;;;;6239867;23;20429;-80
2023/06/29 04:44:11;;;;;;;40.97;36.50;;;21.30;99.90;;;;;;6239933;23;20008;-80
2023/06/29 04:46:40;;;;;;;42.45;37.95;;;21.30;99.90;;;;;;6239998;23;20019;-79
2023/06/29 04:49:07;;;;;;;40.28;35.95;;;21.30;99.90;;;;;;6240369;23;20000;-80
2023/06/29 04:51:36;;;;;;;39.38;35.17;;;21.30;99.90;;;;;;6241964;23;20000;-80
2023/06/29 04:54:05;;;;;;;41.20;36.88;;;21.40;99.90;;;;;;6242780;22;20006;-80
2023/06/29 04:56:31;;;;;;;39.53;35.50;;;21.40;99.90;;;;;;6239501;23;20000;-80
2023/06/29 04:58:58;;;;;;;41.08;35.03;;;21.30;99.90;;;;;;6241401;22;20076;-80
2023/06/29 05:01:23;;;;;;;40.05;35.83;;;21.40;99.90;;;;;;6239582;23;20434;-80
2023/06/29 05:03:49;;;;;;;39.47;33.03;;;21.40;99.90;;;;;;6241812;23;20001;-80
2023/06/29 05:06:15;;;;;;;38.03;33.95;;;21.50;99.90;;;;;;6239814;23;19993;-80
2023/06/29 05:08:40;;;;;;;35.05;31.02;;;21.50;99.90;;;;;;6240798;23;20050;-79
2023/06/29 05:11:06;;;;;;;37.35;33.40;;;21.50;99.90;;;;;;6240342;23;20047;-80
2023/06/29 05:13:35;;;;;;;41.28;36.67;;;21.50;99.90;;;;;;6239914;23;20069;-80
2023/06/29 05:16:04;;;;;;;40.20;35.88;;;21.60;99.90;;;;;;6241132;22;20067;-80
2023/06/29 05:18:30;;;;;;;39.83;35.38;;;21.50;99.90;;;;;;6239820;23;20307;-79
2023/06/29 05:20:57;;;;;;;39.28;35.10;;;21.50;99.90;;;;;;6239349;23;20007;-80
2023/06/29 05:23:23;;;;;;;43.35;36.15;;;21.50;99.90;;;;;;6241539;22;20430;-80
2023/06/29 05:25:48;;;;;;;41.65;35.55;;;21.60;99.90;;;;;;6239241;23;20031;-80
2023/06/29 05:28:14;;;;;;;40.05;35.95;;;21.60;99.90;;;;;;6241626;23;20024;-80
2023/06/29 05:30:40;;;;;;;38.58;34.50;;;21.60;99.90;;;;;;6239805;23;20058;-80
2023/06/29 05:33:05;;;;;;;38.20;34.35;;;21.60;99.90;;;;;;6239323;23;20112;-79
2023/06/29 05:35:31;;;;;;;40.92;36.28;;;21.70;99.90;;;;;;6241259;23;20414;-80
2023/06/29 05:37:57;;;;;;;39.05;34.90;;;21.70;99.90;;;;;;6239155;23;20462;-79
2023/06/29 05:40:23;;;;;;;39.47;35.17;;;21.70;99.90;;;;;;6239012;23;20453;-79
2023/06/29 05:42:49;;;;;;;37.75;33.70;;;21.80;99.90;;;;;;6239748;23;20023;-79
2023/06/29 05:45:14;;;;;;;38.50;34.42;;;21.90;99.90;;;;;;6239289;23;20366;-79
2023/06/29 05:47:40;;;;;;;37.08;33.13;;;22.00;99.90;;;;;;6243280;23;20016;-80
2023/06/29 05:50:06;;;;;;;41.58;37.10;;;22.00;99.90;;;;;;6240141;23;20504;-80
2023/06/29 05:52:33;;;;;;;38.88;33.63;;;22.10;99.90;;;;;;6239670;23;20456;-80
2023/06/29 05:54:59;;;;;;;39.65;35.40;;;22.10;99.90;;;;;;6239093;23;20007;-80
2023/06/29 05:57:25;;;;;;;40.65;36.35;;;22.20;99.90;;;;;;6240848;23;20422;-80
2023/06/29 05:59:51;;;;;;;38.45;33.78;;;22.30;99.90;;;;;;6240720;23;20513;-80
2023/06/29 06:02:16;;;;;;;43.22;38.20;;;22.40;99.90;;;;;;6241010;22;20071;-80
2023/06/29 06:04:42;;;;;;;38.70;34.55;;;22.50;99.90;;;;;;6239593;23;20000;-80
2023/06/29 06:07:08;;;;;;;39.08;34.88;;;22.50;99.90;;;;;;6240997;23;20004;-80
2023/06/29 06:09:33;;;;;;;39.50;35.22;;;22.50;99.90;;;;;;6238696;23;20058;-80
2023/06/29 06:11:59;;;;;;;40.28;36.17;;;22.60;99.90;;;;;;6239095;23;20058;-79
2023/06/29 06:14:24;;;;;;;43.08;36.85;;;22.60;99.90;;;;;;6240933;23;19997;-80
2023/06/29 06:16:50;;;;;;;39.72;35.47;;;22.70;99.90;;;;;;6239453;23;20011;-80
2023/06/29 06:19:16;;;;;;;38.15;34.25;;;22.80;99.90;;;;;;6238710;23;20008;-81
2023/06/29 06:21:41;;;;;;;37.45;33.58;;;22.80;99.90;;;;;;6239607;23;20007;-80
2023/06/29 06:24:07;;;;;;;39.80;33.22;;;22.80;99.90;;;;;;6239898;23;20079;-81
2023/06/29 06:26:32;;;;;;;38.33;34.20;;;22.80;99.90;;;;;;6240980;23;20038;-80
2023/06/29 06:28:58;;;;;;;40.80;36.53;;;22.80;99.90;;;;;;6238769;23;20015;-80
2023/06/29 06:31:25;;;;;;;36.83;33.13;;;22.80;99.90;;;;;;6239189;23;20445;-80
2023/06/29 06:33:55;;;;;;;35.42;31.80;;;22.80;99.90;;;;;;6239140;23;20011;-79
2023/06/29 06:36:22;;;;;;;44.92;35.20;;;22.70;99.90;;;;;;6239448;23;20422;-80
2023/06/29 06:38:48;;;;;;;37.55;33.55;;;22.60;99.90;;;;;;6240416;22;20062;-81
2023/06/29 06:41:14;;;;;;;34.47;30.83;;;22.70;99.90;;;;;;6239372;23;20020;-81
2023/06/29 06:43:39;;;;;;;34.92;31.17;;;22.70;99.90;;;;;;6239232;23;20035;-80
2023/06/29 06:46:05;;;;;;;37.40;31.23;;;22.80;99.90;;;;;;6238734;23;20011;-81
2023/06/29 06:48:31;;;;;;;37.33;33.38;;;22.80;99.90;;;;;;6238826;23;20058;-81
2023/06/29 06:50:56;;;;;;;32.65;29.23;;;22.80;99.90;;;;;;6238874;23;20004;-81
2023/06/29 06:53:22;;;;;;;32.95;29.13;;;22.90;99.90;;;;;;6240241;23;20000;-81
2023/06/29 06:55:47;;;;;;;33.00;29.45;;;22.90;99.90;;;;;;6239918;23;20000;-81
2023/06/29 06:58:13;;;;;;;38.58;31.13;;;22.90;99.90;;;;;;6240842;23;20087;-81
2023/06/29 07:00:39;;;;;;;35.13;30.85;;;23.00;99.90;;;;;;6241079;23;20016;-80
2023/06/29 07:03:04;;;;;;;35.53;30.77;;;23.00;99.90;;;;;;6240587;23;20031;-81
2023/06/29 07:05:30;;;;;;;31.80;27.67;;;23.10;99.90;;;;;;6241202;23;20373;-81
2023/06/29 07:07:55;;;;;;;32.83;28.65;;;23.00;99.90;;;;;;6241866;23;20096;-81
2023/06/29 07:10:21;;;;;;;35.20;29.45;;;23.10;99.90;;;;;;6241018;23;20015;-80
2023/06/29 07:12:47;;;;;;;30.40;27.25;;;23.10;99.90;;;;;;6242848;23;20031;-81
2023/06/29 07:15:12;;;;;;;32.85;29.08;;;23.20;99.90;;;;;;6240600;23;20000;-80
2023/06/29 07:17:38;;;;;;;33.50;29.80;;;23.30;99.90;;;;;;6240969;23;20006;-80
2023/06/29 07:20:04;;;;;;;33.47;29.52;;;23.40;99.90;;;;;;6240649;23;20050;-81
2023/06/29 07:22:30;;;;;;;31.70;28.30;;;23.40;99.90;;;;;;6240669;23;20530;-81
2023/06/29 07:24:57;;;;;;;32.70;29.33;;;23.50;99.90;;;;;;6240678;23;20012;-81
2023/06/29 07:27:23;;;;;;;33.40;27.88;;;23.50;99.70;;;;;;6242885;22;19996;-80
2023/06/29 07:29:48;;;;;;;30.83;26.27;;;23.60;99.70;;;;;;6240757;23;20008;-81
2023/06/29 07:32:14;;;;;;;33.67;30.25;;;23.60;99.50;;;;;;6242203;23;20426;-81
2023/06/29 07:34:39;;;;;;;32.20;28.83;;;23.70;99.40;;;;;;6242473;23;20011;-81
2023/06/29 07:37:05;;;;;;;32.65;29.10;;;23.80;99.20;;;;;;6241574;23;20004;-81
2023/06/29 07:39:31;;;;;;;27.42;24.70;;;23.80;98.80;;;;;;6242495;23;20008;-80
2023/06/29 07:41:56;;;;;;;35.78;28.25;;;23.80;98.70;;;;;;6242194;22;20000;-81
2023/06/29 07:44:22;;;;;;;29.88;26.65;;;23.90;98.60;;;;;;6242239;23;19996;-80
2023/06/29 07:46:48;;;;;;;30.15;27.05;;;24.00;98.40;;;;;;6240712;23;20011;-80
2023/06/29 07:49:13;;;;;;;27.58;24.63;;;24.00;98.40;;;;;;6240030;23;20008;-79
2023/06/29 07:51:39;;;;;;;28.10;24.77;;;24.10;98.40;;;;;;6241720;23;20036;-80
2023/06/29 07:54:06;;;;;;;30.67;26.15;;;24.10;98.30;;;;;;6242004;23;20015;-80
2023/06/29 07:56:32;;;;;;;30.58;27.23;;;24.20;98.10;;;;;;6240901;23;20004;-80
2023/06/29 07:58:57;;;;;;;29.73;26.50;;;24.30;97.90;;;;;;6241732;23;20349;-80
2023/06/29 08:01:23;;;;;;;26.45;23.20;;;24.30;97.60;;;;;;6240323;23;20403;-80
2023/06/29 08:03:48;;;;;;;25.98;23.05;;;24.40;97.20;;;;;;6240453;23;20023;-79
2023/06/29 08:06:15;;;;;;;27.08;24.17;;;24.60;96.80;;;;;;6241585;23;20004;-80
2023/06/29 08:08:41;;;;;;;29.58;25.55;;;24.70;96.50;;;;;;6242061;22;20502;-81
2023/06/29 08:11:12;;;;;;;30.02;27.02;;;24.70;96.40;;;;;;6240208;23;20504;-80
2023/06/29 08:13:38;;;;;;;31.00;25.85;;;24.80;96.10;;;;;;6242769;22;20011;-80
2023/06/29 08:16:04;;;;;;;27.33;24.25;;;24.80;96.00;;;;;;6241474;23;20075;-80
2023/06/29 08:18:30;;;;;;;29.38;26.10;;;24.90;95.80;;;;;;6243750;22;20000;-80
2023/06/29 08:20:55;;;;;;;26.13;23.33;;;25.00;95.50;;;;;;6241714;23;20011;-81
2023/06/29 08:23:21;;;;;;;27.58;24.52;;;25.10;95.40;;;;;;6242455;23;20012;-82
2023/06/29 08:25:46;;;;;;;23.25;20.85;;;25.20;95.00;;;;;;6241740;23;20421;-81
2023/06/29 08:28:12;;;;;;;26.45;23.63;;;25.40;94.80;;;;;;6244158;23;20118;-80
2023/06/29 08:30:37;;;;;;;27.08;24.27;;;25.60;94.50;;;;;;6242973;23;20050;-81
2023/06/29 08:33:03;;;;;;;25.70;23.17;;;25.70;94.10;;;;;;6241666;23;20019;-81
2023/06/29 08:35:29;;;;;;;25.60;22.45;;;25.80;93.70;;;;;;6239608;23;20131;-81
2023/06/29 08:37:54;;;;;;;26.90;24.08;;;25.90;93.50;;;;;;6239871;23;20091;-81
2023/06/29 08:40:22;;;;;;;25.48;22.88;;;25.90;93.20;;;;;;6242082;23;20079;-81
2023/06/29 08:42:50;;;;;;;28.02;25.13;;;26.00;93.20;;;;;;6241295;23;20319;-81
2023/06/29 08:45:16;;;;;;;26.55;23.75;;;25.90;93.00;;;;;;6242453;22;20002;-81
2023/06/29 08:47:43;;;;;;;27.00;23.42;;;25.90;93.00;;;;;;6241782;23;20083;-79
2023/06/29 08:50:10;;;;;;;30.75;26.70;;;26.00;92.90;;;;;;6239425;23;20058;-81
2023/06/29 08:52:37;;;;;;;25.88;23.33;;;25.90;92.60;;;;;;6241972;22;19996;-81
2023/06/29 08:55:03;;;;;;;27.38;23.00;;;25.90;92.60;;;;;;6239759;23;20334;-80
2023/06/29 08:57:31;;;;;;;25.98;23.17;;;25.80;92.60;;;;;;6240189;23;20048;-80
2023/06/29 08:59:58;;;;;;;26.15;23.35;;;25.80;92.60;;;;;;6239615;23;20173;-81
2023/06/29 09:02:24;;;;;;;27.00;24.27;;;25.80;92.30;;;;;;6240107;23;20012;-81
2023/06/29 09:04:50;;;;;;;27.98;25.10;;;25.70;92.00;;;;;;6241320;22;20433;-81
2023/06/29 09:07:16;;;;;;;25.92;22.80;;;25.60;92.00;;;;;;6241461;22;20008;-82
2023/06/29 09:09:42;;;;;;;28.42;24.45;;;25.60;92.30;;;;;;6241651;23;20058;-80
2023/06/29 09:12:09;;;;;;;25.67;23.08;;;25.60;92.30;;;;;;6240032;23;20077;-82
2023/06/29 09:14:44;;;;;;;27.67;24.95;;;25.60;92.30;;;;;;6242037;22;20027;-81
2023/06/29 09:17:17;;;;;;;28.67;23.90;;;25.70;92.40;;;;;;6239035;23;20020;-81
2023/06/29 09:19:57;;;;;;;25.50;22.65;;;25.70;92.10;;;;;;6239462;23;20004;-80
2023/06/29 09:22:30;;;;;;;27.00;24.13;;;25.80;92.10;;;;;;6239070;23;20082;-80
2023/06/29 09:24:58;;;;;;;27.65;24.45;;;25.90;92.00;;;;;;6238599;23;20175;-81
2023/06/29 09:27:23;;;;;;;25.73;22.90;;;26.00;92.30;;;;;;6238181;23;20054;-81
2023/06/29 09:29:52;;;;;;;25.48;22.60;;;26.10;92.00;;;;;;6239544;23;20080;-80
2023/06/29 09:32:19;;;;;;;24.58;22.05;;;26.30;91.50;;;;;;6239066;22;20058;-81
2023/06/29 09:34:46;;;;;;;24.40;20.38;;;26.40;91.20;;;;;;6238087;23;20008;-81
2023/06/29 09:37:16;;;;;;;24.13;21.63;;;26.50;90.80;;;;;;6239601;22;20007;-81
2023/06/29 09:39:57;;;;;;;23.80;21.38;;;26.60;90.60;;;;;;6239991;23;20032;-81
2023/06/29 09:42:23;;;;;;;23.17;20.65;;;26.70;90.40;;;;;;6240718;23;20004;-81
2023/06/29 09:44:49;;;;;;;24.67;22.05;;;26.70;90.30;;;;;;6241354;22;20000;-80
2023/06/29 09:47:14;;;;;;;23.85;21.40;;;26.70;90.00;;;;;;6240530;22;20011;-80
2023/06/29 09:49:49;;;;;;;24.52;21.45;;;26.80;89.70;;;;;;6239647;23;20011;-80
2023/06/29 09:52:16;;;;;;;24.77;22.13;;;26.80;89.20;;;;;;6239349;23;20000;-81
2023/06/29 09:54:42;;;;;;;25.80;22.55;;;26.90;89.20;;;;;;6241354;22;20043;-80
2023/06/29 09:57:12;;;;;;;25.88;22.23;;;27.00;89.00;;;;;;6239268;23;20017;-81
2023/06/29 09:59:44;;;;;;;23.65;21.25;;;27.20;89.30;;;;;;6244854;22;20006;-81
2023/06/29 10:02:10;;;;;;;26.10;23.42;;;27.30;88.30;;;;;;6270972;22;20022;-80
2023/06/29 10:04:40;;;;;;;25.50;22.88;;;27.40;87.30;;;;;;6271782;22;19999;-80
2023/06/29 10:07:12;;;;;;;24.40;21.80;;;27.40;86.50;;;;;;6271564;22;20547;-81
2023/06/29 10:09:41;;;;;;;22.87;20.53;;;27.40;86.20;;;;;;6244424;22;20346;-80
2023/06/29 10:12:09;;;;;;;23.95;21.52;;;27.30;85.70;;;;;;6271653;22;20635;-80
2023/06/29 10:14:37;;;;;;;24.70;22.15;;;27.30;85.70;;;;;;6271491;22;20003;-80
2023/06/29 10:17:07;;;;;;;24.98;22.27;;;27.20;85.90;;;;;;6243398;22;20451;-80
2023/06/29 10:19:36;;;;;;;26.05;22.63;;;27.20;85.70;;;;;;6271841;22;20011;-79
2023/06/29 10:22:12;;;;;;;27.52;23.38;;;27.20;86.30;;;;;;6271075;22;20008;-79
2023/06/29 10:24:43;;;;;;;27.88;22.85;;;27.20;86.50;;;;;;6271771;22;20008;-79
2023/06/29 10:27:10;;;;;;;24.98;22.33;;;27.30;86.60;;;;;;6271360;22;20004;-80
2023/06/29 10:29:54;;;;;;;25.15;22.58;;;27.40;86.60;;;;;;6270988;22;20087;-81
2023/06/29 10:32:32;;;;;;;24.35;21.20;;;27.60;85.50;;;;;;6244133;22;20042;-80
2023/06/29 10:35:05;;;;;;;23.90;21.50;;;27.70;85.50;;;;;;6243774;22;20015;-81
2023/06/29 10:37:32;;;;;;;22.65;20.27;;;27.80;84.10;;;;;;6271654;22;20109;-80
2023/06/29 10:39:58;;;;;;;27.52;22.00;;;27.80;83.80;;;;;;6271026;22;20057;-81
2023/06/29 10:42:24;;;;;;;24.38;21.45;;;27.90;84.00;;;;;;6244397;22;20074;-80
2023/06/29 10:44:50;;;;;;;23.80;21.20;;;28.00;83.70;;;;;;6271410;22;20429;-81
2023/06/29 10:47:27;;;;;;;24.63;22.15;;;28.10;82.70;;;;;;6245727;22;20385;-81
2023/06/29 10:50:17;;;;;;;23.08;20.65;;;28.20;82.50;;;;;;6272156;22;20008;-81
2023/06/29 10:52:43;;;;;;;23.52;21.15;;;28.20;82.00;;;;;;6271612;22;19996;-81
2023/06/29 10:55:17;;;;;;;21.65;18.80;;;28.10;81.90;;;;;;6244244;22;20008;-80
2023/06/29 10:57:57;;;;;;;22.13;19.92;;;28.10;82.20;;;;;;6244748;22;20447;-81
2023/06/29 11:00:25;;;;;;;20.42;18.35;;;28.10;81.90;;;;;;6238423;23;20016;-81
2023/06/29 11:02:51;;;;;;;21.88;19.55;;;28.20;81.60;;;;;;6240696;22;20001;-81
2023/06/29 11:05:19;;;;;;;20.05;18.02;;;28.20;81.00;;;;;;6238818;23;20155;-81
2023/06/29 11:07:47;;;;;;;21.92;19.65;;;28.20;80.00;;;;;;6239117;23;20009;-81
2023/06/29 11:10:13;;;;;;;21.63;19.30;;;28.20;79.80;;;;;;6238568;23;20012;-80
2023/06/29 11:12:39;;;;;;;17.88;16.13;;;28.20;79.60;;;;;;6239197;23;20066;-79
2023/06/29 11:15:11;;;;;;;19.42;17.52;;;28.30;79.50;;;;;;6237860;23;20028;-80
2023/06/29 11:17:37;;;;;;;20.15;18.17;;;28.30;79.00;;;;;;6240858;22;20076;-81
2023/06/29 11:20:02;;;;;;;22.42;19.33;;;28.30;78.70;;;;;;6239987;23;20053;-81
2023/06/29 11:22:28;;;;;;;20.70;18.40;;;28.20;78.80;;;;;;6239070;23;20100;-80
2023/06/29 11:24:54;;;;;;;24.00;20.70;;;28.20;79.10;;;;;;6240575;23;19996;-79
2023/06/29 11:27:19;;;;;;;22.35;20.15;;;28.20;78.50;;;;;;6238972;23;20011;-81
2023/06/29 11:29:52;;;;;;;25.35;22.45;;;28.30;77.80;;;;;;6238581;23;20035;-81
2023/06/29 11:32:18;;;;;;;23.33;21.02;;;28.30;77.60;;;;;;6240564;22;20001;-81
2023/06/29 11:34:44;;;;;;;25.58;22.23;;;28.30;77.00;;;;;;6238851;23;20087;-82
2023/06/29 11:37:10;;;;;;;22.67;20.40;;;28.40;76.80;;;;;;6238775;23;20000;-82
2023/06/29 11:39:35;;;;;;;24.27;21.83;;;28.40;77.00;;;;;;6240541;23;20354;-82
2023/06/29 11:42:07;;;;;;;25.63;21.05;;;28.40;76.90;;;;;;6238834;23;20008;-82
2023/06/29 11:44:33;;;;;;;22.05;19.83;;;28.50;77.30;;;;;;6240651;23;20007;-82
2023/06/29 11:46:59;;;;;;;25.05;22.58;;;28.50;77.60;;;;;;6242261;22;20004;-82
2023/06/29 11:49:25;;;;;;;25.20;22.65;;;28.50;77.60;;;;;;6242278;23;20372;-82
2023/06/29 11:51:51;;;;;;;25.48;22.88;;;28.70;77.80;;;;;;6240655;23;20046;-83
2023/06/29 11:54:17;;;;;;;25.70;23.15;;;28.70;77.00;;;;;;6241893;22;20487;-81
2023/06/29 11:56:43;;;;;;;23.17;20.70;;;28.80;76.90;;;;;;6242222;23;20003;-82
2023/06/29 11:59:12;;;;;;;24.85;22.33;;;28.90;77.00;;;;;;6241958;23;20008;-82
2023/06/29 12:01:43;;;;;;;25.02;22.05;;;29.00;76.50;;;;;;6240415;23;20019;-82
2023/06/29 12:04:10;;;;;;;26.48;23.65;;;29.00;76.30;;;;;;6241715;23;20004;-82
2023/06/29 12:06:36;;;;;;;26.70;24.00;;;29.00;76.20;;;;;;6242431;23;20008;-81
2023/06/29 12:09:11;;;;;;;28.50;24.60;;;29.00;75.90;;;;;;6240994;23;20015;-81
2023/06/29 12:11:37;;;;;;;28.17;25.23;;;29.10;75.60;;;;;;6240313;23;20000;-82
2023/06/29 12:14:02;;;;;;;27.48;24.70;;;29.00;75.60;;;;;;6241820;23;20079;-82
2023/06/29 12:16:28;;;;;;;27.65;24.95;;;28.90;76.00;;;;;;6242088;22;20004;-82
2023/06/29 12:18:53;;;;;;;28.58;22.80;;;28.80;76.60;;;;;;6241884;23;20000;-82
2023/06/29 12:21:20;;;;;;;27.98;25.10;;;28.80;76.90;;;;;;6243917;23;20000;-81
2023/06/29 12:23:46;;;;;;;28.73;25.80;;;28.80;76.70;;;;;;6244327;22;19996;-82
2023/06/29 12:26:12;;;;;;;28.90;25.90;;;28.90;76.50;;;;;;6242589;22;20422;-82